EST,Max TemperatureF,Mean TemperatureF,Min TemperatureF,Max Dew PointF,MeanDew PointF,Min DewpointF,Max Humidity, Mean Humidity, Min Humidity, Max Sea Level PressureIn, Mean Sea Level PressureIn, Min Sea Level PressureIn, Max VisibilityMiles, Mean VisibilityMiles, Min VisibilityMiles, Max Wind SpeedMPH, Mean Wind SpeedMPH, Max Gust SpeedMPH,PrecipitationIn, CloudCover, Events, WindDirDegrees
2013-2-1,10,4,-2,1,-6,-15,85,66,44,30.16,30.08,29.93,10,10,5,16,9,21,0.00,4,,265
2013-2-2,12,4,-4,-4,-11,-15,72,57,45,30.10,30.08,30.06,10,10,10,14,8,20,0.00,4,,301
2013-2-3,,,,,,,,,,,,,,,,,,,,,,
2013-2-4,15,8,0,1,-6,-17,92,51,35,29.98,29.94,29.89,10,10,10,14,7,18,0.00,0,,275
2013-2-5,24,8,-7,16,4,-24,100,71,32,30.03,29.82,29.69,10,9,1,14,5,20,0.00,6,,286
2013-2-6,21,7,-7,16,6,-29,100,77,34,30.22,30.16,30.04,10,8,1,16,5,,0.00,6,,220
2013-2-7,21,20,19,19,17,14,100,88,80,30.19,30.15,30.12,10,5,1,13,5,20,0.00,8,,35
2013-2-8,26,13,0,16,9,-9,92,69,46,30.39,30.30,30.17,10,10,5,15,8,21,0.00,2,,5
2013-2-9,26,8,-9,19,4,-26,100,75,41,30.39,30.27,30.12,10,9,3,12,3,20,0.00,5,,210
2013-2-10,37,30,24,34,25,19,93,84,74,30.12,29.85,29.39,10,6,2,22,8,28,0.15,8,,114
2013-2-11,37,30,24,36,27,14,100,80,59,29.81,29.45,29.28,10,7,1,24,11,31,0.04,8,,252
2013-2-12,26,24,21,16,14,12,80,67,55,29.97,29.89,29.79,10,10,9,14,9,21,0.00,6,,254
2013-2-13,33,24,15,27,20,10,86,79,64,29.79,29.68,29.63,10,8,3,10,6,,0.00,6,,215
2013-2-14,33,26,19,27,20,7,93,78,58,29.94,29.72,29.63,10,5,1,18,5,28,0.00,8,,347
2013-2-15,21,14,6,10,5,-2,79,61,42,30.16,30.08,29.94,10,9,3,14,9,21,0.00,7,,316
2013-2-16,19,11,1,3,0,-6,85,64,42,30.17,30.11,30.07,10,10,8,13,7,18,0.00,6,,319
2013-2-17,19,5,-9,7,-3,-17,100,62,46,30.19,30.12,30.00,10,10,4,16,5,20,0.00,1,,253
2013-2-18,35,25,15,30,23,1,93,79,53,30.00,29.68,29.40,10,9,1,18,7,26,0.00,8,,159
2013-2-19,55,21,10,30,13,0,93,74,57,29.94,29.58,29.29,10,4,1,25,13,36,0.00,8,,312
2013-2-20,19,14,10,9,5,1,73,67,62,30.37,30.20,29.95,10,9,1,21,16,32,0.00,8,,321
2013-2-21,24,20,15,18,15,7,86,79,68,30.45,30.38,30.28,10,10,10,16,9,23,0.00,8,,14
2013-2-22,26,22,19,21,18,14,93,85,74,30.27,29.98,29.79,10,5,0,18,10,24,0.00,8,,53
2013-2-23,30,22,15,25,18,12,93,81,64,29.83,29.77,29.74,10,8,3,10,3,,0.00,7,,254
2013-2-24,35,30,26,25,22,19,86,75,56,30.13,30.01,29.83,10,10,5,10,6,,0.00,8,,309
2013-2-25,33,28,24,27,22,19,93,75,60,30.16,30.14,30.12,10,9,3,10,4,,0.00,8,,179
2013-2-26,33,30,28,28,24,21,93,74,60,30.14,30.03,29.87,10,10,7,17,6,25,0.00,7,,62
2013-2-27,33,30,28,28,26,19,93,82,69,29.85,29.77,29.74,10,5,1,15,12,26,0.00,7,,18
2013-2-28,32,28,24,27,19,12,80,69,59,30.16,30.00,29.81,10,9,2,18,13,34,0.00,8,,10